Santa Maria Madalena, Brazil
Current Conditions -  °F | °C
As of 8:00 AM on Friday 31 Oct 2014 (Local Time) from SBME Reporting Station
Clear Clear  
Wind Chill: 82°   Ceiling: Unl
Heat Index: 87°   Visibility: 6mi
Dew Point: 72°   Wind: 15mph
Humidity: 70%   Direction: 40°NE
Pressure: 29.91"   Gusts: NA
Location:  21.96°S, 42.01°W
Report Text: SBME 311000Z 04013KT CAVOK 28/22 Q1013
Loading
Personal Weather Stations






























Interactive Weather Map
Tropical Storm Tracking
New forecast layout! Learn more

10-Day Weather Forecast

Advertisements
Track Severe Weather on mobile